Jasper, Missouri
Current Conditions -  °F | °C
As of 3:53 AM on Friday 21 Nov 2014 (Local Time) from KJLN Reporting Station
Broken Clouds Broken Clouds  
Wind Chill: 30°   Ceiling: 1100
Heat Index: 36°   Visibility: 10mi
Dew Point: 25°   Wind: 8mph
Humidity: 64%   Direction: 90°E
Pressure: 30.17"   Gusts: NA
Location:  37.34°N, 94.3°W
Report Text: KJLN 210953Z AUTO 09007KT 10SM BKN011 BKN034 02/M04 A3017 RMK AO2 SLP218 T00221039
Loading
Personal Weather Stations






























Interactive Weather Map New forecast layout! Learn more

10-Day Weather Forecast

Advertisements
Track Severe Weather on mobile